sensor_id;sensor_type;location;lat;lon;timestamp;temperature;humidity
43607;DHT22;29197;44.788;10.366;2023-06-14T01:50:48;20.20;99.90
43607;DHT22;29197;44.788;10.366;2023-06-14T04:26:31;20.60;99.90
43607;DHT22;29197;44.788;10.366;2023-06-14T04:29:20;20.70;99.90
43607;DHT22;29197;44.788;10.366;2023-06-14T07:07:47;22.40;99.90
43607;DHT22;29197;44.788;10.366;2023-06-14T07:10:35;22.40;99.90
43607;DHT22;29197;44.788;10.366;2023-06-14T07:13:24;22.40;99.90
43607;DHT22;29197;44.788;10.366;2023-06-14T07:16:13;22.40;99.90
43607;DHT22;29197;44.788;10.366;2023-06-14T07:19:01;22.50;99.90
43607;DHT22;29197;44.788;10.366;2023-06-14T07:21:51;22.60;99.90
43607;DHT22;29197;44.788;10.366;2023-06-14T07:24:40;22.60;99.90
43607;DHT22;29197;44.788;10.366;2023-06-14T07:27:29;22.60;99.90
43607;DHT22;29197;44.788;10.366;2023-06-14T07:30:18;22.70;99.90
43607;DHT22;29197;44.788;10.366;2023-06-14T07:33:06;22.70;99.90
43607;DHT22;29197;44.788;10.366;2023-06-14T07:35:55;22.70;99.90
43607;DHT22;29197;44.788;10.366;2023-06-14T07:38:45;22.70;99.90
43607;DHT22;29197;44.788;10.366;2023-06-14T07:41:34;22.70;99.90
43607;DHT22;29197;44.788;10.366;2023-06-14T07:44:23;22.80;99.90
43607;DHT22;29197;44.788;10.366;2023-06-14T07:47:11;22.80;99.90
43607;DHT22;29197;44.788;10.366;2023-06-14T07:50:00;22.80;99.90
43607;DHT22;29197;44.788;10.366;2023-06-14T07:52:48;22.80;99.90
43607;DHT22;29197;44.788;10.366;2023-06-14T07:55:38;22.90;99.90
43607;DHT22;29197;44.788;10.366;2023-06-14T07:58:40;22.90;99.90
43607;DHT22;29197;44.788;10.366;2023-06-14T08:01:28;23.00;99.90
43607;DHT22;29197;44.788;10.366;2023-06-14T08:04:17;23.10;99.90
43607;DHT22;29197;44.788;10.366;2023-06-14T08:07:05;23.10;99.90
43607;DHT22;29197;44.788;10.366;2023-06-14T08:09:54;23.10;99.90
43607;DHT22;29197;44.788;10.366;2023-06-14T08:12:44;23.10;99.90
43607;DHT22;29197;44.788;10.366;2023-06-14T08:15:32;23.00;99.90
43607;DHT22;29197;44.788;10.366;2023-06-14T08:18:21;23.00;99.90
43607;DHT22;29197;44.788;10.366;2023-06-14T08:21:09;23.10;99.90
43607;DHT22;29197;44.788;10.366;2023-06-14T08:23:58;23.20;99.90
43607;DHT22;29197;44.788;10.366;2023-06-14T08:26:47;23.20;99.90
43607;DHT22;29197;44.788;10.366;2023-06-14T08:29:37;23.30;99.90
43607;DHT22;29197;44.788;10.366;2023-06-14T08:32:27;23.30;99.90
43607;DHT22;29197;44.788;10.366;2023-06-14T08:35:16;23.30;99.90
43607;DHT22;29197;44.788;10.366;2023-06-14T08:38:05;23.40;99.90
43607;DHT22;29197;44.788;10.366;2023-06-14T08:40:57;23.40;99.90
43607;DHT22;29197;44.788;10.366;2023-06-14T08:43:45;23.40;99.90
43607;DHT22;29197;44.788;10.366;2023-06-14T08:46:36;23.40;99.90
43607;DHT22;29197;44.788;10.366;2023-06-14T08:49:26;23.30;99.90
43607;DHT22;29197;44.788;10.366;2023-06-14T08:52:16;23.30;99.90
43607;DHT22;29197;44.788;10.366;2023-06-14T08:55:08;23.30;99.90
43607;DHT22;29197;44.788;10.366;2023-06-14T08:57:58;23.30;99.90
43607;DHT22;29197;44.788;10.366;2023-06-14T09:00:46;23.30;99.90
43607;DHT22;29197;44.788;10.366;2023-06-14T09:03:38;23.30;99.90
43607;DHT22;29197;44.788;10.366;2023-06-14T09:06:28;23.30;99.90
43607;DHT22;29197;44.788;10.366;2023-06-14T09:09:17;23.40;99.90
43607;DHT22;29197;44.788;10.366;2023-06-14T09:12:07;23.30;99.90
43607;DHT22;29197;44.788;10.366;2023-06-14T09:14:58;23.40;99.90
43607;DHT22;29197;44.788;10.366;2023-06-14T09:17:47;23.30;99.90
43607;DHT22;29197;44.788;10.366;2023-06-14T09:20:37;23.40;99.90
43607;DHT22;29197;44.788;10.366;2023-06-14T09:23:26;23.40;99.90
43607;DHT22;29197;44.788;10.366;2023-06-14T09:26:16;23.50;99.90
43607;DHT22;29197;44.788;10.366;2023-06-14T09:29:05;23.60;99.90
43607;DHT22;29197;44.788;10.366;2023-06-14T09:31:53;23.60;99.90
43607;DHT22;29197;44.788;10.366;2023-06-14T09:34:42;23.60;99.90
43607;DHT22;29197;44.788;10.366;2023-06-14T09:37:32;23.70;99.90
43607;DHT22;29197;44.788;10.366;2023-06-14T09:40:21;23.80;99.90
43607;DHT22;29197;44.788;10.366;2023-06-14T09:43:10;24.00;99.90
43607;DHT22;29197;44.788;10.366;2023-06-14T09:45:58;24.20;99.90
43607;DHT22;29197;44.788;10.366;2023-06-14T09:48:48;24.40;99.90
43607;DHT22;29197;44.788;10.366;2023-06-14T09:51:42;24.50;99.90
43607;DHT22;29197;44.788;10.366;2023-06-14T09:54:34;24.50;99.90
43607;DHT22;29197;44.788;10.366;2023-06-14T09:57:26;24.60;99.90
43607;DHT22;29197;44.788;10.366;2023-06-14T10:00:18;24.70;99.90
43607;DHT22;29197;44.788;10.366;2023-06-14T10:03:13;24.80;99.90
43607;DHT22;29197;44.788;10.366;2023-06-14T10:06:05;25.00;99.90
43607;DHT22;29197;44.788;10.366;2023-06-14T10:08:57;25.20;99.90
43607;DHT22;29197;44.788;10.366;2023-06-14T10:11:48;25.30;99.90
43607;DHT22;29197;44.788;10.366;2023-06-14T10:14:37;25.20;99.90
43607;DHT22;29197;44.788;10.366;2023-06-14T10:17:33;25.20;99.90
43607;DHT22;29197;44.788;10.366;2023-06-14T10:20:28;25.30;99.90
43607;DHT22;29197;44.788;10.366;2023-06-14T10:26:09;25.50;99.90
43607;DHT22;29197;44.788;10.366;2023-06-14T10:29:09;25.70;99.90
43607;DHT22;29197;44.788;10.366;2023-06-14T11:09:51;26.50;99.90
43607;DHT22;29197;44.788;10.366;2023-06-14T11:12:48;26.70;99.90
43607;DHT22;29197;44.788;10.366;2023-06-14T11:15:37;26.70;99.90
43607;DHT22;29197;44.788;10.366;2023-06-14T11:18:26;26.70;99.90
43607;DHT22;29197;44.788;10.366;2023-06-14T11:21:16;26.80;99.90
43607;DHT22;29197;44.788;10.366;2023-06-14T11:24:10;26.90;99.90
43607;DHT22;29197;44.788;10.366;2023-06-14T11:26:59;27.10;99.90
43607;DHT22;29197;44.788;10.366;2023-06-14T11:29:48;27.20;99.90
43607;DHT22;29197;44.788;10.366;2023-06-14T11:32:37;27.20;99.90
43607;DHT22;29197;44.788;10.366;2023-06-14T11:35:26;27.20;99.90
43607;DHT22;29197;44.788;10.366;2023-06-14T11:38:15;27.10;99.90
43607;DHT22;29197;44.788;10.366;2023-06-14T11:41:05;27.20;99.90
43607;DHT22;29197;44.788;10.366;2023-06-14T11:43:53;27.30;99.90
43607;DHT22;29197;44.788;10.366;2023-06-14T11:46:42;27.30;99.90
43607;DHT22;29197;44.788;10.366;2023-06-14T11:49:35;27.30;99.90
43607;DHT22;29197;44.788;10.366;2023-06-14T11:52:24;27.30;99.90
43607;DHT22;29197;44.788;10.366;2023-06-14T11:55:12;27.30;99.90
43607;DHT22;29197;44.788;10.366;2023-06-14T11:58:03;27.30;99.90
43607;DHT22;29197;44.788;10.366;2023-06-14T12:00:52;27.20;99.90
43607;DHT22;29197;44.788;10.366;2023-06-14T12:03:47;27.00;99.90
43607;DHT22;29197;44.788;10.366;2023-06-14T12:06:36;26.80;99.90
43607;DHT22;29197;44.788;10.366;2023-06-14T12:09:27;26.70;99.90
43607;DHT22;29197;44.788;10.366;2023-06-14T12:12:16;26.60;99.90
43607;DHT22;29197;44.788;10.366;2023-06-14T12:15:07;26.50;99.90
43607;DHT22;29197;44.788;10.366;2023-06-14T12:17:57;26.50;99.90
43607;DHT22;29197;44.788;10.366;2023-06-14T12:20:49;26.60;99.90
43607;DHT22;29197;44.788;10.366;2023-06-14T12:23:45;26.70;99.90
43607;DHT22;29197;44.788;10.366;2023-06-14T12:26:38;26.80;99.90
43607;DHT22;29197;44.788;10.366;2023-06-14T12:29:28;26.90;99.90
43607;DHT22;29197;44.788;10.366;2023-06-14T12:32:18;27.00;99.90
43607;DHT22;29197;44.788;10.366;2023-06-14T12:35:10;27.00;99.90
43607;DHT22;29197;44.788;10.366;2023-06-14T12:37:58;27.00;99.90
43607;DHT22;29197;44.788;10.366;2023-06-14T12:40:47;26.80;99.90
43607;DHT22;29197;44.788;10.366;2023-06-14T12:43:36;26.70;99.90
43607;DHT22;29197;44.788;10.366;2023-06-14T12:46:25;26.60;99.90
43607;DHT22;29197;44.788;10.366;2023-06-14T12:49:15;26.50;99.90
43607;DHT22;29197;44.788;10.366;2023-06-14T12:52:04;26.40;99.90
43607;DHT22;29197;44.788;10.366;2023-06-14T12:54:52;26.30;99.90
43607;DHT22;29197;44.788;10.366;2023-06-14T12:57:41;26.20;99.90
43607;DHT22;29197;44.788;10.366;2023-06-14T13:00:29;26.20;99.90
43607;DHT22;29197;44.788;10.366;2023-06-14T13:03:18;26.10;99.90
43607;DHT22;29197;44.788;10.366;2023-06-14T13:06:08;26.10;99.90
43607;DHT22;29197;44.788;10.366;2023-06-14T13:08:56;26.10;99.90
43607;DHT22;29197;44.788;10.366;2023-06-14T13:11:46;26.20;99.90
43607;DHT22;29197;44.788;10.366;2023-06-14T13:14:35;26.30;99.90
43607;DHT22;29197;44.788;10.366;2023-06-14T13:17:23;26.50;99.90
43607;DHT22;29197;44.788;10.366;2023-06-14T13:20:11;26.70;99.90
43607;DHT22;29197;44.788;10.366;2023-06-14T13:23:04;27.10;99.90
43607;DHT22;29197;44.788;10.366;2023-06-14T13:25:54;27.30;99.90
43607;DHT22;29197;44.788;10.366;2023-06-14T13:28:43;27.40;99.90
43607;DHT22;29197;44.788;10.366;2023-06-14T13:31:31;27.50;99.90
43607;DHT22;29197;44.788;10.366;2023-06-14T13:34:20;27.50;99.90
43607;DHT22;29197;44.788;10.366;2023-06-14T13:37:08;27.40;99.90
43607;DHT22;29197;44.788;10.366;2023-06-14T13:42:47;27.10;99.90
43607;DHT22;29197;44.788;10.366;2023-06-14T13:45:36;26.90;99.90
43607;DHT22;29197;44.788;10.366;2023-06-14T13:48:24;26.80;99.90
43607;DHT22;29197;44.788;10.366;2023-06-14T13:51:13;26.70;99.90
43607;DHT22;29197;44.788;10.366;2023-06-14T13:54:01;26.60;99.90
43607;DHT22;29197;44.788;10.366;2023-06-14T13:56:51;26.50;99.90
43607;DHT22;29197;44.788;10.366;2023-06-14T13:59:40;26.50;99.90
43607;DHT22;29197;44.788;10.366;2023-06-14T14:02:31;26.40;99.90
43607;DHT22;29197;44.788;10.366;2023-06-14T14:05:19;26.40;99.90
43607;DHT22;29197;44.788;10.366;2023-06-14T14:08:13;26.50;99.90
43607;DHT22;29197;44.788;10.366;2023-06-14T14:11:01;26.60;99.90
43607;DHT22;29197;44.788;10.366;2023-06-14T14:13:51;26.70;99.90
43607;DHT22;29197;44.788;10.366;2023-06-14T14:16:41;26.70;99.90
43607;DHT22;29197;44.788;10.366;2023-06-14T14:19:30;26.70;99.90
43607;DHT22;29197;44.788;10.366;2023-06-14T14:22:18;26.70;99.90
43607;DHT22;29197;44.788;10.366;2023-06-14T14:25:07;26.70;99.90
43607;DHT22;29197;44.788;10.366;2023-06-14T14:27:56;26.70;99.90
43607;DHT22;29197;44.788;10.366;2023-06-14T14:30:46;26.70;99.90
43607;DHT22;29197;44.788;10.366;2023-06-14T14:33:35;26.70;99.90
43607;DHT22;29197;44.788;10.366;2023-06-14T14:36:23;26.60;99.90
43607;DHT22;29197;44.788;10.366;2023-06-14T14:39:12;26.60;99.90
43607;DHT22;29197;44.788;10.366;2023-06-14T14:42:00;26.60;99.90
43607;DHT22;29197;44.788;10.366;2023-06-14T14:44:49;26.60;99.90
43607;DHT22;29197;44.788;10.366;2023-06-14T14:47:39;26.70;99.90
43607;DHT22;29197;44.788;10.366;2023-06-14T14:50:27;26.80;99.90
43607;DHT22;29197;44.788;10.366;2023-06-14T14:53:16;26.90;99.90
43607;DHT22;29197;44.788;10.366;2023-06-14T14:56:04;27.00;99.90
43607;DHT22;29197;44.788;10.366;2023-06-14T14:58:53;27.10;99.90
43607;DHT22;29197;44.788;10.366;2023-06-14T15:01:42;27.10;99.90
43607;DHT22;29197;44.788;10.366;2023-06-14T15:04:32;27.10;99.90
43607;DHT22;29197;44.788;10.366;2023-06-14T15:07:20;27.10;99.90
43607;DHT22;29197;44.788;10.366;2023-06-14T15:10:09;27.10;99.90
43607;DHT22;29197;44.788;10.366;2023-06-14T15:12:58;27.20;99.90
43607;DHT22;29197;44.788;10.366;2023-06-14T15:15:46;27.20;99.90
43607;DHT22;29197;44.788;10.366;2023-06-14T15:18:35;27.20;99.90
43607;DHT22;29197;44.788;10.366;2023-06-14T15:21:24;27.20;99.90
43607;DHT22;29197;44.788;10.366;2023-06-14T15:24:13;27.20;99.90
43607;DHT22;29197;44.788;10.366;2023-06-14T15:27:11;27.20;99.90
43607;DHT22;29197;44.788;10.366;2023-06-14T15:30:00;27.10;99.90
43607;DHT22;29197;44.788;10.366;2023-06-14T15:32:49;27.10;99.90
43607;DHT22;29197;44.788;10.366;2023-06-14T15:35:38;27.10;99.90
43607;DHT22;29197;44.788;10.366;2023-06-14T15:38:29;27.20;99.90
43607;DHT22;29197;44.788;10.366;2023-06-14T15:41:17;27.10;99.90
43607;DHT22;29197;44.788;10.366;2023-06-14T15:44:06;27.10;99.90
43607;DHT22;29197;44.788;10.366;2023-06-14T15:46:55;27.10;99.90
43607;DHT22;29197;44.788;10.366;2023-06-14T15:49:43;27.20;99.90
43607;DHT22;29197;44.788;10.366;2023-06-14T15:52:32;27.30;99.90
43607;DHT22;29197;44.788;10.366;2023-06-14T15:55:22;27.40;99.90
43607;DHT22;29197;44.788;10.366;2023-06-14T15:58:10;27.40;99.90
43607;DHT22;29197;44.788;10.366;2023-06-14T16:00:59;27.50;99.90
43607;DHT22;29197;44.788;10.366;2023-06-14T16:03:47;27.50;99.90
43607;DHT22;29197;44.788;10.366;2023-06-14T16:06:36;27.60;99.90
43607;DHT22;29197;44.788;10.366;2023-06-14T16:09:24;27.50;99.90
43607;DHT22;29197;44.788;10.366;2023-06-14T16:12:14;27.50;99.90
43607;DHT22;29197;44.788;10.366;2023-06-14T16:15:03;27.40;99.90
43607;DHT22;29197;44.788;10.366;2023-06-14T16:17:52;27.30;99.90
43607;DHT22;29197;44.788;10.366;2023-06-14T16:20:42;27.20;99.90
43607;DHT22;29197;44.788;10.366;2023-06-14T16:23:30;27.10;99.90
43607;DHT22;29197;44.788;10.366;2023-06-14T16:26:19;27.00;99.90
43607;DHT22;29197;44.788;10.366;2023-06-14T16:29:09;26.80;99.90
43607;DHT22;29197;44.788;10.366;2023-06-14T16:31:57;26.70;99.90
43607;DHT22;29197;44.788;10.366;2023-06-14T16:34:46;26.60;99.90
43607;DHT22;29197;44.788;10.366;2023-06-14T16:37:35;26.30;99.90
43607;DHT22;29197;44.788;10.366;2023-06-14T16:40:23;26.00;99.90
43607;DHT22;29197;44.788;10.366;2023-06-14T16:43:12;25.90;99.90
43607;DHT22;29197;44.788;10.366;2023-06-14T16:46:02;25.80;99.90
43607;DHT22;29197;44.788;10.366;2023-06-14T16:48:50;25.80;99.90
43607;DHT22;29197;44.788;10.366;2023-06-14T16:51:39;25.60;99.90
43607;DHT22;29197;44.788;10.366;2023-06-14T16:54:27;25.50;99.90
43607;DHT22;29197;44.788;10.366;2023-06-14T16:57:16;25.50;99.90
43607;DHT22;29197;44.788;10.366;2023-06-14T17:00:06;25.40;99.90
43607;DHT22;29197;44.788;10.366;2023-06-14T17:02:56;25.30;99.90
43607;DHT22;29197;44.788;10.366;2023-06-14T17:08:43;25.30;99.90
43607;DHT22;29197;44.788;10.366;2023-06-14T17:11:32;25.20;99.90
43607;DHT22;29197;44.788;10.366;2023-06-14T17:19:59;24.90;99.90
43607;DHT22;29197;44.788;10.366;2023-06-14T17:22:48;24.80;99.90
43607;DHT22;29197;44.788;10.366;2023-06-14T17:25:36;24.90;99.90
43607;DHT22;29197;44.788;10.366;2023-06-14T17:28:25;24.80;99.90
43607;DHT22;29197;44.788;10.366;2023-06-14T17:31:13;24.90;99.90
43607;DHT22;29197;44.788;10.366;2023-06-14T17:34:02;24.80;99.90
43607;DHT22;29197;44.788;10.366;2023-06-14T17:39:41;24.60;99.90
43607;DHT22;29197;44.788;10.366;2023-06-14T17:42:29;24.50;99.90
43607;DHT22;29197;44.788;10.366;2023-06-14T17:45:17;24.40;99.90
43607;DHT22;29197;44.788;10.366;2023-06-14T17:48:06;24.60;99.90
43607;DHT22;29197;44.788;10.366;2023-06-14T17:50:58;24.50;99.90
43607;DHT22;29197;44.788;10.366;2023-06-14T17:53:47;24.50;99.90
43607;DHT22;29197;44.788;10.366;2023-06-14T17:56:36;24.60;99.90
43607;DHT22;29197;44.788;10.366;2023-06-14T18:02:14;24.60;99.90
43607;DHT22;29197;44.788;10.366;2023-06-14T18:05:02;24.70;99.90
43607;DHT22;29197;44.788;10.366;2023-06-14T18:07:51;24.70;99.90
43607;DHT22;29197;44.788;10.366;2023-06-14T18:10:43;24.80;99.90
43607;DHT22;29197;44.788;10.366;2023-06-14T18:13:31;24.80;99.90
43607;DHT22;29197;44.788;10.366;2023-06-14T18:16:20;24.80;99.90
43607;DHT22;29197;44.788;10.366;2023-06-14T18:19:09;24.80;99.90
43607;DHT22;29197;44.788;10.366;2023-06-14T18:22:04;24.80;99.90
43607;DHT22;29197;44.788;10.366;2023-06-14T18:24:53;24.70;99.90
43607;DHT22;29197;44.788;10.366;2023-06-14T18:27:44;24.70;99.90
43607;DHT22;29197;44.788;10.366;2023-06-14T18:30:32;24.60;99.90
43607;DHT22;29197;44.788;10.366;2023-06-14T18:33:20;24.60;99.90
43607;DHT22;29197;44.788;10.366;2023-06-14T18:36:09;24.60;99.90
43607;DHT22;29197;44.788;10.366;2023-06-14T18:38:57;24.60;99.90
43607;DHT22;29197;44.788;10.366;2023-06-14T18:41:46;24.70;99.90
43607;DHT22;29197;44.788;10.366;2023-06-14T18:44:36;24.60;99.90
43607;DHT22;29197;44.788;10.366;2023-06-14T18:47:24;24.60;99.90
43607;DHT22;29197;44.788;10.366;2023-06-14T18:50:13;24.60;99.90
43607;DHT22;29197;44.788;10.366;2023-06-14T18:53:02;24.60;99.90
43607;DHT22;29197;44.788;10.366;2023-06-14T18:55:51;24.50;99.90
43607;DHT22;29197;44.788;10.366;2023-06-14T18:58:39;24.40;99.90
43607;DHT22;29197;44.788;10.366;2023-06-14T19:01:29;24.30;99.90
43607;DHT22;29197;44.788;10.366;2023-06-14T19:04:18;24.30;99.90
43607;DHT22;29197;44.788;10.366;2023-06-14T19:07:07;24.30;99.90
43607;DHT22;29197;44.788;10.366;2023-06-14T19:09:55;24.30;99.90
43607;DHT22;29197;44.788;10.366;2023-06-14T19:12:44;24.30;99.90
43607;DHT22;29197;44.788;10.366;2023-06-14T19:15:32;24.40;99.90
43607;DHT22;29197;44.788;10.366;2023-06-14T19:18:22;24.40;99.90
43607;DHT22;29197;44.788;10.366;2023-06-14T19:21:12;24.40;99.90
43607;DHT22;29197;44.788;10.366;2023-06-14T19:24:00;24.40;99.90
43607;DHT22;29197;44.788;10.366;2023-06-14T19:26:49;24.40;99.90
43607;DHT22;29197;44.788;10.366;2023-06-14T19:29:38;24.40;99.90
43607;DHT22;29197;44.788;10.366;2023-06-14T19:32:26;24.50;99.90
43607;DHT22;29197;44.788;10.366;2023-06-14T19:35:16;24.50;99.90
43607;DHT22;29197;44.788;10.366;2023-06-14T19:38:07;24.50;99.90
43607;DHT22;29197;44.788;10.366;2023-06-14T19:40:55;24.50;99.90
43607;DHT22;29197;44.788;10.366;2023-06-14T19:43:44;24.40;99.90
43607;DHT22;29197;44.788;10.366;2023-06-14T19:46:32;24.40;99.90
43607;DHT22;29197;44.788;10.366;2023-06-14T19:49:23;24.40;99.90
43607;DHT22;29197;44.788;10.366;2023-06-14T19:52:13;24.40;99.90
43607;DHT22;29197;44.788;10.366;2023-06-14T19:55:01;24.30;99.90
43607;DHT22;29197;44.788;10.366;2023-06-14T19:57:50;24.30;99.90
43607;DHT22;29197;44.788;10.366;2023-06-14T20:00:39;24.20;99.90
43607;DHT22;29197;44.788;10.366;2023-06-14T20:03:27;24.10;99.90
43607;DHT22;29197;44.788;10.366;2023-06-14T20:06:16;24.10;99.90
43607;DHT22;29197;44.788;10.366;2023-06-14T20:11:58;24.00;99.90
43607;DHT22;29197;44.788;10.366;2023-06-14T20:14:47;23.90;99.90
43607;DHT22;29197;44.788;10.366;2023-06-14T20:17:37;23.80;99.90
43607;DHT22;29197;44.788;10.366;2023-06-14T20:20:25;23.80;99.90
43607;DHT22;29197;44.788;10.366;2023-06-14T20:23:14;23.80;99.90
43607;DHT22;29197;44.788;10.366;2023-06-14T20:26:04;23.80;99.90
43607;DHT22;29197;44.788;10.366;2023-06-14T20:28:52;23.90;99.90
43607;DHT22;29197;44.788;10.366;2023-06-14T20:31:41;23.90;99.90
43607;DHT22;29197;44.788;10.366;2023-06-14T20:34:30;23.90;99.90
43607;DHT22;29197;44.788;10.366;2023-06-14T20:37:18;23.90;99.90
43607;DHT22;29197;44.788;10.366;2023-06-14T20:40:17;23.80;99.90
43607;DHT22;29197;44.788;10.366;2023-06-14T20:43:08;23.80;99.90
43607;DHT22;29197;44.788;10.366;2023-06-14T20:45:58;23.80;99.90
43607;DHT22;29197;44.788;10.366;2023-06-14T20:51:37;23.60;99.90
43607;DHT22;29197;44.788;10.366;2023-06-14T20:54:25;23.60;99.90
43607;DHT22;29197;44.788;10.366;2023-06-14T20:57:14;23.60;99.90
43607;DHT22;29197;44.788;10.366;2023-06-14T21:00:08;23.60;99.90
43607;DHT22;29197;44.788;10.366;2023-06-14T21:02:58;23.70;99.90
43607;DHT22;29197;44.788;10.366;2023-06-14T21:05:50;23.70;99.90
43607;DHT22;29197;44.788;10.366;2023-06-14T21:08:39;23.70;99.90
43607;DHT22;29197;44.788;10.366;2023-06-14T21:14:16;23.50;99.90
43607;DHT22;29197;44.788;10.366;2023-06-14T21:17:06;23.40;99.90
43607;DHT22;29197;44.788;10.366;2023-06-14T21:19:55;23.30;99.90
43607;DHT22;29197;44.788;10.366;2023-06-14T21:22:44;23.20;99.90
43607;DHT22;29197;44.788;10.366;2023-06-14T21:25:33;23.20;99.90
43607;DHT22;29197;44.788;10.366;2023-06-14T21:28:22;23.20;99.90
43607;DHT22;29197;44.788;10.366;2023-06-14T21:31:17;23.00;99.90
43607;DHT22;29197;44.788;10.366;2023-06-14T21:34:07;23.00;99.90
43607;DHT22;29197;44.788;10.366;2023-06-14T21:36:56;22.90;99.90
43607;DHT22;29197;44.788;10.366;2023-06-14T21:53:49;22.70;99.90
43607;DHT22;29197;44.788;10.366;2023-06-14T21:56:38;22.50;99.90
43607;DHT22;29197;44.788;10.366;2023-06-14T21:59:26;22.20;99.90
43607;DHT22;29197;44.788;10.366;2023-06-14T22:02:15;22.20;99.90
43607;DHT22;29197;44.788;10.366;2023-06-14T22:05:04;22.20;99.90
43607;DHT22;29197;44.788;10.366;2023-06-14T22:07:54;22.20;99.90
43607;DHT22;29197;44.788;10.366;2023-06-14T22:10:43;22.20;99.90
43607;DHT22;29197;44.788;10.366;2023-06-14T22:13:31;22.20;99.90
43607;DHT22;29197;44.788;10.366;2023-06-14T22:16:21;22.20;99.90
43607;DHT22;29197;44.788;10.366;2023-06-14T22:19:10;22.30;99.90
43607;DHT22;29197;44.788;10.366;2023-06-14T22:24:49;22.20;99.90
43607;DHT22;29197;44.788;10.366;2023-06-14T22:27:38;22.10;99.90
43607;DHT22;29197;44.788;10.366;2023-06-14T22:33:23;21.70;99.90
43607;DHT22;29197;44.788;10.366;2023-06-14T22:36:13;21.80;99.90
43607;DHT22;29197;44.788;10.366;2023-06-14T22:39:03;21.90;99.90
43607;DHT22;29197;44.788;10.366;2023-06-14T22:41:53;22.00;99.90
43607;DHT22;29197;44.788;10.366;2023-06-14T22:44:43;22.00;99.90
43607;DHT22;29197;44.788;10.366;2023-06-14T22:47:37;21.80;99.90
43607;DHT22;29197;44.788;10.366;2023-06-14T22:50:26;21.70;99.90
43607;DHT22;29197;44.788;10.366;2023-06-14T22:53:15;21.80;99.90
43607;DHT22;29197;44.788;10.366;2023-06-14T22:56:05;21.90;99.90
43607;DHT22;29197;44.788;10.366;2023-06-14T22:58:55;21.80;99.90
43607;DHT22;29197;44.788;10.366;2023-06-14T23:01:44;21.50;99.90
43607;DHT22;29197;44.788;10.366;2023-06-14T23:04:33;21.40;99.90
43607;DHT22;29197;44.788;10.366;2023-06-14T23:07:22;21.40;99.90
43607;DHT22;29197;44.788;10.366;2023-06-14T23:10:13;21.30;99.90
43607;DHT22;29197;44.788;10.366;2023-06-14T23:13:05;21.20;99.90
43607;DHT22;29197;44.788;10.366;2023-06-14T23:15:55;21.10;99.90
43607;DHT22;29197;44.788;10.366;2023-06-14T23:18:45;21.10;99.90
43607;DHT22;29197;44.788;10.366;2023-06-14T23:21:33;21.30;99.90
43607;DHT22;29197;44.788;10.366;2023-06-14T23:24:23;21.00;99.90
43607;DHT22;29197;44.788;10.366;2023-06-14T23:27:11;21.00;99.90
43607;DHT22;29197;44.788;10.366;2023-06-14T23:30:00;21.00;99.90
43607;DHT22;29197;44.788;10.366;2023-06-14T23:32:51;21.10;99.90
43607;DHT22;29197;44.788;10.366;2023-06-14T23:35:40;21.20;99.90
43607;DHT22;29197;44.788;10.366;2023-06-14T23:38:29;21.40;99.90
43607;DHT22;29197;44.788;10.366;2023-06-14T23:41:17;21.40;99.90
43607;DHT22;29197;44.788;10.366;2023-06-14T23:44:07;21.50;99.90
43607;DHT22;29197;44.788;10.366;2023-06-14T23:46:55;21.40;99.90
43607;DHT22;29197;44.788;10.366;2023-06-14T23:49:45;21.20;99.90
43607;DHT22;29197;44.788;10.366;2023-06-14T23:52:34;21.10;99.90
43607;DHT22;29197;44.788;10.366;2023-06-14T23:55:22;20.90;99.90
43607;DHT22;29197;44.788;10.366;2023-06-14T23:58:11;20.90;99.90
